sensor_id;sensor_type;location;lat;lon;timestamp;P1;durP1;ratioP1;P2;durP2;ratioP2
24743;SDS011;12844;52.110;5.548;2024-03-17T00:01:01;3.00;;;2.20;;
24743;SDS011;12844;52.110;5.548;2024-03-17T00:03:28;3.55;;;2.15;;
24743;SDS011;12844;52.110;5.548;2024-03-17T00:05:57;3.03;;;2.20;;
24743;SDS011;12844;52.110;5.548;2024-03-17T00:08:23;3.10;;;2.10;;
24743;SDS011;12844;52.110;5.548;2024-03-17T00:10:50;2.63;;;2.30;;
24743;SDS011;12844;52.110;5.548;2024-03-17T00:13:16;2.88;;;2.28;;
24743;SDS011;12844;52.110;5.548;2024-03-17T00:15:42;2.72;;;1.92;;
24743;SDS011;12844;52.110;5.548;2024-03-17T00:18:08;3.08;;;1.80;;
24743;SDS011;12844;52.110;5.548;2024-03-17T00:20:35;3.25;;;2.40;;
24743;SDS011;12844;52.110;5.548;2024-03-17T00:23:04;3.25;;;2.00;;
24743;SDS011;12844;52.110;5.548;2024-03-17T00:25:34;4.07;;;2.40;;
24743;SDS011;12844;52.110;5.548;2024-03-17T00:28:00;3.08;;;2.60;;
24743;SDS011;12844;52.110;5.548;2024-03-17T00:30:26;3.00;;;2.72;;
24743;SDS011;12844;52.110;5.548;2024-03-17T00:32:52;2.95;;;2.30;;
24743;SDS011;12844;52.110;5.548;2024-03-17T00:35:18;2.75;;;2.25;;
24743;SDS011;12844;52.110;5.548;2024-03-17T00:37:47;3.90;;;2.40;;
24743;SDS011;12844;52.110;5.548;2024-03-17T00:40:13;3.03;;;2.40;;
24743;SDS011;12844;52.110;5.548;2024-03-17T00:42:40;3.40;;;2.50;;
24743;SDS011;12844;52.110;5.548;2024-03-17T00:45:06;3.10;;;2.45;;
24743;SDS011;12844;52.110;5.548;2024-03-17T00:47:32;3.90;;;2.60;;
24743;SDS011;12844;52.110;5.548;2024-03-17T00:49:58;5.03;;;2.90;;
24743;SDS011;12844;52.110;5.548;2024-03-17T00:52:23;4.10;;;2.67;;
24743;SDS011;12844;52.110;5.548;2024-03-17T00:54:49;3.92;;;2.92;;
24743;SDS011;12844;52.110;5.548;2024-03-17T00:57:15;3.13;;;2.40;;
24743;SDS011;12844;52.110;5.548;2024-03-17T00:59:41;3.05;;;2.53;;
24743;SDS011;12844;52.110;5.548;2024-03-17T01:02:09;3.47;;;2.58;;
24743;SDS011;12844;52.110;5.548;2024-03-17T01:04:37;4.70;;;3.17;;
24743;SDS011;12844;52.110;5.548;2024-03-17T01:07:04;3.85;;;3.05;;
24743;SDS011;12844;52.110;5.548;2024-03-17T01:09:30;4.78;;;3.42;;
24743;SDS011;12844;52.110;5.548;2024-03-17T01:11:55;5.82;;;3.30;;
24743;SDS011;12844;52.110;5.548;2024-03-17T01:14:21;6.90;;;4.63;;
24743;SDS011;12844;52.110;5.548;2024-03-17T01:16:47;6.35;;;4.03;;
24743;SDS011;12844;52.110;5.548;2024-03-17T01:19:12;5.32;;;3.65;;
24743;SDS011;12844;52.110;5.548;2024-03-17T01:21:38;4.47;;;3.15;;
24743;SDS011;12844;52.110;5.548;2024-03-17T01:24:03;3.58;;;2.80;;
24743;SDS011;12844;52.110;5.548;2024-03-17T01:26:29;4.00;;;2.70;;
24743;SDS011;12844;52.110;5.548;2024-03-17T01:28:54;5.22;;;3.22;;
24743;SDS011;12844;52.110;5.548;2024-03-17T01:31:20;4.90;;;3.28;;
24743;SDS011;12844;52.110;5.548;2024-03-17T01:33:46;4.70;;;3.00;;
24743;SDS011;12844;52.110;5.548;2024-03-17T01:36:12;4.40;;;3.00;;
24743;SDS011;12844;52.110;5.548;2024-03-17T01:38:37;4.55;;;3.30;;
24743;SDS011;12844;52.110;5.548;2024-03-17T01:41:03;3.85;;;3.17;;
24743;SDS011;12844;52.110;5.548;2024-03-17T01:43:29;4.72;;;3.33;;
24743;SDS011;12844;52.110;5.548;2024-03-17T01:45:55;5.95;;;3.35;;
24743;SDS011;12844;52.110;5.548;2024-03-17T01:48:23;4.95;;;3.35;;
24743;SDS011;12844;52.110;5.548;2024-03-17T01:50:49;4.65;;;3.15;;
24743;SDS011;12844;52.110;5.548;2024-03-17T01:53:18;4.10;;;3.20;;
24743;SDS011;12844;52.110;5.548;2024-03-17T01:55:45;4.25;;;3.25;;
24743;SDS011;12844;52.110;5.548;2024-03-17T01:58:12;3.80;;;3.10;;
24743;SDS011;12844;52.110;5.548;2024-03-17T02:00:38;4.10;;;3.17;;
24743;SDS011;12844;52.110;5.548;2024-03-17T02:03:07;4.05;;;3.00;;
24743;SDS011;12844;52.110;5.548;2024-03-17T02:05:37;4.18;;;3.03;;
24743;SDS011;12844;52.110;5.548;2024-03-17T02:08:06;4.82;;;3.25;;
24743;SDS011;12844;52.110;5.548;2024-03-17T02:10:32;4.18;;;3.13;;
24743;SDS011;12844;52.110;5.548;2024-03-17T02:13:02;4.40;;;3.53;;
24743;SDS011;12844;52.110;5.548;2024-03-17T02:15:29;4.10;;;3.38;;
24743;SDS011;12844;52.110;5.548;2024-03-17T02:17:55;6.20;;;3.70;;
24743;SDS011;12844;52.110;5.548;2024-03-17T02:20:21;5.47;;;3.55;;
24743;SDS011;12844;52.110;5.548;2024-03-17T02:23:07;4.22;;;3.22;;
24743;SDS011;12844;52.110;5.548;2024-03-17T02:25:33;4.68;;;3.35;;
24743;SDS011;12844;52.110;5.548;2024-03-17T02:27:58;5.50;;;3.42;;
24743;SDS011;12844;52.110;5.548;2024-03-17T02:30:24;4.45;;;3.22;;
24743;SDS011;12844;52.110;5.548;2024-03-17T02:32:53;4.28;;;3.42;;
24743;SDS011;12844;52.110;5.548;2024-03-17T02:35:19;4.72;;;3.30;;
24743;SDS011;12844;52.110;5.548;2024-03-17T02:37:48;4.10;;;2.97;;
24743;SDS011;12844;52.110;5.548;2024-03-17T02:40:14;4.57;;;3.30;;
24743;SDS011;12844;52.110;5.548;2024-03-17T02:42:41;4.75;;;3.22;;
24743;SDS011;12844;52.110;5.548;2024-03-17T02:45:07;3.85;;;3.00;;
24743;SDS011;12844;52.110;5.548;2024-03-17T02:47:34;4.75;;;3.28;;
24743;SDS011;12844;52.110;5.548;2024-03-17T02:50:00;3.92;;;3.08;;
24743;SDS011;12844;52.110;5.548;2024-03-17T02:52:26;5.88;;;3.85;;
24743;SDS011;12844;52.110;5.548;2024-03-17T02:54:51;3.65;;;3.08;;
24743;SDS011;12844;52.110;5.548;2024-03-17T02:57:18;4.40;;;3.20;;
24743;SDS011;12844;52.110;5.548;2024-03-17T02:59:44;4.90;;;3.17;;
24743;SDS011;12844;52.110;5.548;2024-03-17T03:02:11;4.82;;;3.53;;
24743;SDS011;12844;52.110;5.548;2024-03-17T03:04:37;4.43;;;3.33;;
24743;SDS011;12844;52.110;5.548;2024-03-17T03:07:03;4.38;;;3.30;;
24743;SDS011;12844;52.110;5.548;2024-03-17T03:09:28;4.03;;;3.10;;
24743;SDS011;12844;52.110;5.548;2024-03-17T03:12:00;4.70;;;3.22;;
24743;SDS011;12844;52.110;5.548;2024-03-17T03:14:29;4.38;;;3.40;;
24743;SDS011;12844;52.110;5.548;2024-03-17T03:16:55;4.85;;;3.67;;
24743;SDS011;12844;52.110;5.548;2024-03-17T03:19:21;6.00;;;3.50;;
24743;SDS011;12844;52.110;5.548;2024-03-17T03:21:46;4.10;;;2.97;;
24743;SDS011;12844;52.110;5.548;2024-03-17T03:24:15;4.65;;;3.42;;
24743;SDS011;12844;52.110;5.548;2024-03-17T03:26:42;4.03;;;3.15;;
24743;SDS011;12844;52.110;5.548;2024-03-17T03:29:09;4.68;;;3.30;;
24743;SDS011;12844;52.110;5.548;2024-03-17T03:31:35;4.63;;;3.47;;
24743;SDS011;12844;52.110;5.548;2024-03-17T03:34:01;4.30;;;3.15;;
24743;SDS011;12844;52.110;5.548;2024-03-17T03:36:28;4.00;;;3.30;;
24743;SDS011;12844;52.110;5.548;2024-03-17T03:38:54;4.60;;;3.10;;
24743;SDS011;12844;52.110;5.548;2024-03-17T03:41:22;5.22;;;3.30;;
24743;SDS011;12844;52.110;5.548;2024-03-17T03:43:48;4.90;;;3.60;;
24743;SDS011;12844;52.110;5.548;2024-03-17T03:46:13;4.60;;;3.45;;
24743;SDS011;12844;52.110;5.548;2024-03-17T03:48:40;3.63;;;3.00;;
24743;SDS011;12844;52.110;5.548;2024-03-17T03:51:06;3.95;;;3.00;;
24743;SDS011;12844;52.110;5.548;2024-03-17T03:53:32;4.07;;;3.10;;
24743;SDS011;12844;52.110;5.548;2024-03-17T04:06:20;4.00;;;3.08;;
24743;SDS011;12844;52.110;5.548;2024-03-17T04:08:46;3.85;;;3.22;;
24743;SDS011;12844;52.110;5.548;2024-03-17T04:11:12;4.55;;;3.47;;
24743;SDS011;12844;52.110;5.548;2024-03-17T04:13:37;4.97;;;3.22;;
24743;SDS011;12844;52.110;5.548;2024-03-17T04:16:04;4.40;;;3.35;;
24743;SDS011;12844;52.110;5.548;2024-03-17T04:18:31;3.92;;;3.10;;
24743;SDS011;12844;52.110;5.548;2024-03-17T04:21:01;3.90;;;2.90;;
24743;SDS011;12844;52.110;5.548;2024-03-17T04:23:28;4.93;;;3.47;;
24743;SDS011;12844;52.110;5.548;2024-03-17T04:25:57;4.38;;;3.40;;
24743;SDS011;12844;52.110;5.548;2024-03-17T04:28:23;4.18;;;3.17;;
24743;SDS011;12844;52.110;5.548;2024-03-17T04:30:48;4.10;;;3.28;;
24743;SDS011;12844;52.110;5.548;2024-03-17T04:33:14;3.67;;;2.95;;
24743;SDS011;12844;52.110;5.548;2024-03-17T04:35:41;3.55;;;3.13;;
24743;SDS011;12844;52.110;5.548;2024-03-17T04:38:07;4.18;;;3.35;;
24743;SDS011;12844;52.110;5.548;2024-03-17T04:40:34;3.92;;;3.20;;
24743;SDS011;12844;52.110;5.548;2024-03-17T04:45:32;3.85;;;3.08;;
24743;SDS011;12844;52.110;5.548;2024-03-17T04:47:57;3.88;;;3.20;;
24743;SDS011;12844;52.110;5.548;2024-03-17T04:50:23;4.20;;;3.00;;
24743;SDS011;12844;52.110;5.548;2024-03-17T04:52:49;4.05;;;3.22;;
24743;SDS011;12844;52.110;5.548;2024-03-17T04:55:14;3.97;;;3.45;;
24743;SDS011;12844;52.110;5.548;2024-03-17T04:57:42;3.88;;;2.92;;
24743;SDS011;12844;52.110;5.548;2024-03-17T05:00:11;3.75;;;3.20;;
24743;SDS011;12844;52.110;5.548;2024-03-17T05:02:38;3.85;;;2.80;;
24743;SDS011;12844;52.110;5.548;2024-03-17T05:05:05;4.20;;;3.20;;
24743;SDS011;12844;52.110;5.548;2024-03-17T05:07:33;3.67;;;3.00;;
24743;SDS011;12844;52.110;5.548;2024-03-17T05:09:58;3.67;;;3.15;;
24743;SDS011;12844;52.110;5.548;2024-03-17T05:12:24;3.70;;;3.08;;
24743;SDS011;12844;52.110;5.548;2024-03-17T05:14:50;4.15;;;3.15;;
24743;SDS011;12844;52.110;5.548;2024-03-17T05:17:15;4.10;;;2.90;;
24743;SDS011;12844;52.110;5.548;2024-03-17T05:19:41;4.40;;;2.90;;
24743;SDS011;12844;52.110;5.548;2024-03-17T05:22:07;4.60;;;3.00;;
24743;SDS011;12844;52.110;5.548;2024-03-17T05:24:32;5.03;;;3.38;;
24743;SDS011;12844;52.110;5.548;2024-03-17T05:26:58;3.85;;;3.28;;
24743;SDS011;12844;52.110;5.548;2024-03-17T05:29:24;4.53;;;3.10;;
24743;SDS011;12844;52.110;5.548;2024-03-17T05:31:49;3.70;;;3.13;;
24743;SDS011;12844;52.110;5.548;2024-03-17T05:34:15;3.72;;;3.30;;
24743;SDS011;12844;52.110;5.548;2024-03-17T05:36:41;4.15;;;3.45;;
24743;SDS011;12844;52.110;5.548;2024-03-17T05:39:06;4.32;;;3.30;;
24743;SDS011;12844;52.110;5.548;2024-03-17T05:41:32;3.80;;;3.13;;
24743;SDS011;12844;52.110;5.548;2024-03-17T05:43:57;4.07;;;3.50;;
24743;SDS011;12844;52.110;5.548;2024-03-17T05:46:23;4.70;;;3.53;;
24743;SDS011;12844;52.110;5.548;2024-03-17T05:48:53;3.80;;;3.20;;
24743;SDS011;12844;52.110;5.548;2024-03-17T05:51:19;3.80;;;3.40;;
24743;SDS011;12844;52.110;5.548;2024-03-17T05:53:44;3.88;;;3.30;;
24743;SDS011;12844;52.110;5.548;2024-03-17T05:56:10;4.50;;;3.25;;
24743;SDS011;12844;52.110;5.548;2024-03-17T05:58:37;4.10;;;3.30;;
24743;SDS011;12844;52.110;5.548;2024-03-17T06:01:04;3.83;;;3.30;;
24743;SDS011;12844;52.110;5.548;2024-03-17T06:03:30;4.40;;;3.53;;
24743;SDS011;12844;52.110;5.548;2024-03-17T06:05:58;3.78;;;3.00;;
24743;SDS011;12844;52.110;5.548;2024-03-17T06:08:24;3.90;;;3.20;;
24743;SDS011;12844;52.110;5.548;2024-03-17T06:10:50;3.80;;;3.15;;
24743;SDS011;12844;52.110;5.548;2024-03-17T06:13:15;3.85;;;3.30;;
24743;SDS011;12844;52.110;5.548;2024-03-17T06:15:42;4.13;;;3.25;;
24743;SDS011;12844;52.110;5.548;2024-03-17T06:18:09;4.55;;;3.67;;
24743;SDS011;12844;52.110;5.548;2024-03-17T06:20:40;3.67;;;3.35;;
24743;SDS011;12844;52.110;5.548;2024-03-17T06:23:12;3.50;;;2.90;;
24743;SDS011;12844;52.110;5.548;2024-03-17T06:25:42;4.00;;;3.05;;
24743;SDS011;12844;52.110;5.548;2024-03-17T06:28:11;3.60;;;3.00;;
24743;SDS011;12844;52.110;5.548;2024-03-17T06:30:42;5.28;;;3.40;;
24743;SDS011;12844;52.110;5.548;2024-03-17T06:33:12;4.03;;;3.08;;
24743;SDS011;12844;52.110;5.548;2024-03-17T06:35:38;4.80;;;3.38;;
24743;SDS011;12844;52.110;5.548;2024-03-17T06:38:04;4.07;;;3.10;;
24743;SDS011;12844;52.110;5.548;2024-03-17T06:40:34;3.67;;;3.15;;
24743;SDS011;12844;52.110;5.548;2024-03-17T06:43:01;4.05;;;3.30;;
24743;SDS011;12844;52.110;5.548;2024-03-17T06:45:26;3.38;;;2.97;;
24743;SDS011;12844;52.110;5.548;2024-03-17T06:47:52;4.80;;;3.72;;
24743;SDS011;12844;52.110;5.548;2024-03-17T06:50:17;4.00;;;3.05;;
24743;SDS011;12844;52.110;5.548;2024-03-17T06:52:43;4.75;;;3.20;;
24743;SDS011;12844;52.110;5.548;2024-03-17T06:55:09;3.78;;;3.25;;
24743;SDS011;12844;52.110;5.548;2024-03-17T06:57:34;4.32;;;3.30;;
24743;SDS011;12844;52.110;5.548;2024-03-17T07:00:00;3.72;;;3.08;;
24743;SDS011;12844;52.110;5.548;2024-03-17T07:02:30;4.72;;;3.45;;
24743;SDS011;12844;52.110;5.548;2024-03-17T07:04:57;5.05;;;3.47;;
24743;SDS011;12844;52.110;5.548;2024-03-17T07:07:22;4.13;;;3.38;;
24743;SDS011;12844;52.110;5.548;2024-03-17T07:09:48;4.60;;;3.55;;
24743;SDS011;12844;52.110;5.548;2024-03-17T07:12:14;4.90;;;4.10;;
24743;SDS011;12844;52.110;5.548;2024-03-17T07:14:39;4.28;;;3.40;;
24743;SDS011;12844;52.110;5.548;2024-03-17T07:17:05;3.25;;;2.95;;
24743;SDS011;12844;52.110;5.548;2024-03-17T07:19:32;3.65;;;2.92;;
24743;SDS011;12844;52.110;5.548;2024-03-17T07:21:57;4.57;;;3.35;;
24743;SDS011;12844;52.110;5.548;2024-03-17T07:24:23;4.45;;;3.30;;
24743;SDS011;12844;52.110;5.548;2024-03-17T07:26:49;3.95;;;3.10;;
24743;SDS011;12844;52.110;5.548;2024-03-17T07:29:16;4.53;;;3.40;;
24743;SDS011;12844;52.110;5.548;2024-03-17T07:31:42;4.00;;;3.30;;
24743;SDS011;12844;52.110;5.548;2024-03-17T07:34:07;4.47;;;3.45;;
24743;SDS011;12844;52.110;5.548;2024-03-17T07:36:33;4.70;;;3.45;;
24743;SDS011;12844;52.110;5.548;2024-03-17T07:38:59;3.83;;;3.15;;
24743;SDS011;12844;52.110;5.548;2024-03-17T07:41:25;3.42;;;3.13;;
24743;SDS011;12844;52.110;5.548;2024-03-17T07:43:50;3.60;;;3.13;;
24743;SDS011;12844;52.110;5.548;2024-03-17T07:46:16;3.92;;;3.17;;
24743;SDS011;12844;52.110;5.548;2024-03-17T07:48:42;3.50;;;3.20;;
24743;SDS011;12844;52.110;5.548;2024-03-17T07:51:10;4.03;;;3.22;;
24743;SDS011;12844;52.110;5.548;2024-03-17T07:53:37;3.97;;;3.30;;
24743;SDS011;12844;52.110;5.548;2024-03-17T07:56:09;3.83;;;3.28;;
24743;SDS011;12844;52.110;5.548;2024-03-17T07:58:37;4.07;;;3.22;;
24743;SDS011;12844;52.110;5.548;2024-03-17T08:01:07;4.70;;;3.72;;
24743;SDS011;12844;52.110;5.548;2024-03-17T08:03:35;4.25;;;3.50;;
24743;SDS011;12844;52.110;5.548;2024-03-17T08:06:02;4.60;;;3.30;;
24743;SDS011;12844;52.110;5.548;2024-03-17T08:08:29;3.97;;;3.22;;
24743;SDS011;12844;52.110;5.548;2024-03-17T08:10:56;3.72;;;3.33;;
24743;SDS011;12844;52.110;5.548;2024-03-17T08:13:22;3.95;;;3.33;;
24743;SDS011;12844;52.110;5.548;2024-03-17T08:15:55;4.70;;;3.50;;
24743;SDS011;12844;52.110;5.548;2024-03-17T08:18:21;3.42;;;3.10;;
24743;SDS011;12844;52.110;5.548;2024-03-17T08:20:47;4.28;;;3.30;;
24743;SDS011;12844;52.110;5.548;2024-03-17T08:23:13;3.70;;;3.20;;
24743;SDS011;12844;52.110;5.548;2024-03-17T08:25:38;3.78;;;3.38;;
24743;SDS011;12844;52.110;5.548;2024-03-17T08:28:05;4.20;;;3.20;;
24743;SDS011;12844;52.110;5.548;2024-03-17T08:30:32;3.30;;;3.00;;
24743;SDS011;12844;52.110;5.548;2024-03-17T08:32:58;3.40;;;2.95;;
24743;SDS011;12844;52.110;5.548;2024-03-17T08:35:24;3.72;;;3.28;;
24743;SDS011;12844;52.110;5.548;2024-03-17T08:37:49;4.07;;;3.38;;
24743;SDS011;12844;52.110;5.548;2024-03-17T08:40:25;3.88;;;3.20;;
24743;SDS011;12844;52.110;5.548;2024-03-17T08:42:50;4.05;;;3.30;;
24743;SDS011;12844;52.110;5.548;2024-03-17T08:45:16;3.22;;;2.83;;
24743;SDS011;12844;52.110;5.548;2024-03-17T08:47:42;3.65;;;3.20;;
24743;SDS011;12844;52.110;5.548;2024-03-17T08:50:08;3.78;;;2.97;;
24743;SDS011;12844;52.110;5.548;2024-03-17T08:52:34;3.10;;;2.78;;
24743;SDS011;12844;52.110;5.548;2024-03-17T08:55:00;3.55;;;3.10;;
24743;SDS011;12844;52.110;5.548;2024-03-17T08:57:28;3.40;;;3.10;;
24743;SDS011;12844;52.110;5.548;2024-03-17T08:59:54;4.30;;;3.33;;
24743;SDS011;12844;52.110;5.548;2024-03-17T09:02:20;3.90;;;3.00;;
24743;SDS011;12844;52.110;5.548;2024-03-17T09:04:48;4.03;;;2.97;;
24743;SDS011;12844;52.110;5.548;2024-03-17T09:07:14;3.70;;;2.90;;
24743;SDS011;12844;52.110;5.548;2024-03-17T09:09:41;3.40;;;3.10;;
24743;SDS011;12844;52.110;5.548;2024-03-17T09:12:07;3.95;;;3.00;;
24743;SDS011;12844;52.110;5.548;2024-03-17T09:14:33;3.90;;;2.90;;
24743;SDS011;12844;52.110;5.548;2024-03-17T09:16:58;3.67;;;2.92;;
24743;SDS011;12844;52.110;5.548;2024-03-17T09:19:24;3.40;;;3.10;;
24743;SDS011;12844;52.110;5.548;2024-03-17T09:21:50;3.50;;;2.97;;
24743;SDS011;12844;52.110;5.548;2024-03-17T09:24:15;3.33;;;3.03;;
24743;SDS011;12844;52.110;5.548;2024-03-17T09:26:41;3.50;;;2.88;;
24743;SDS011;12844;52.110;5.548;2024-03-17T09:29:06;3.00;;;2.60;;
24743;SDS011;12844;52.110;5.548;2024-03-17T09:31:32;3.70;;;3.03;;
24743;SDS011;12844;52.110;5.548;2024-03-17T09:34:00;3.83;;;2.92;;
24743;SDS011;12844;52.110;5.548;2024-03-17T09:36:26;4.18;;;3.30;;
24743;SDS011;12844;52.110;5.548;2024-03-17T09:38:52;3.17;;;2.75;;
24743;SDS011;12844;52.110;5.548;2024-03-17T09:41:21;3.95;;;3.20;;
24743;SDS011;12844;52.110;5.548;2024-03-17T09:43:54;3.25;;;2.95;;
24743;SDS011;12844;52.110;5.548;2024-03-17T09:46:25;3.72;;;3.00;;
24743;SDS011;12844;52.110;5.548;2024-03-17T09:48:55;3.40;;;2.75;;
24743;SDS011;12844;52.110;5.548;2024-03-17T09:51:23;3.28;;;2.80;;
24743;SDS011;12844;52.110;5.548;2024-03-17T09:53:50;4.97;;;2.85;;
24743;SDS011;12844;52.110;5.548;2024-03-17T09:56:17;2.67;;;2.47;;
24743;SDS011;12844;52.110;5.548;2024-03-17T09:58:47;3.08;;;2.78;;
24743;SDS011;12844;52.110;5.548;2024-03-17T10:01:14;3.65;;;3.17;;
24743;SDS011;12844;52.110;5.548;2024-03-17T10:06:30;3.30;;;2.78;;
24743;SDS011;12844;52.110;5.548;2024-03-17T10:08:59;3.28;;;2.95;;
24743;SDS011;12844;52.110;5.548;2024-03-17T10:11:32;3.38;;;3.08;;
24743;SDS011;12844;52.110;5.548;2024-03-17T10:14:03;3.22;;;2.80;;
24743;SDS011;12844;52.110;5.548;2024-03-17T10:16:30;3.30;;;3.00;;
24743;SDS011;12844;52.110;5.548;2024-03-17T10:21:38;3.10;;;2.80;;
24743;SDS011;12844;52.110;5.548;2024-03-17T10:24:12;3.75;;;2.90;;
24743;SDS011;12844;52.110;5.548;2024-03-17T10:26:55;2.88;;;2.53;;
24743;SDS011;12844;52.110;5.548;2024-03-17T13:40:07;2.40;;;2.20;;
24743;SDS011;12844;52.110;5.548;2024-03-17T13:42:35;3.08;;;2.08;;
24743;SDS011;12844;52.110;5.548;2024-03-17T13:45:00;2.15;;;1.83;;
24743;SDS011;12844;52.110;5.548;2024-03-17T13:47:26;2.20;;;1.98;;
24743;SDS011;12844;52.110;5.548;2024-03-17T13:49:52;2.55;;;2.35;;
24743;SDS011;12844;52.110;5.548;2024-03-17T13:52:18;2.22;;;1.95;;
24743;SDS011;12844;52.110;5.548;2024-03-17T13:54:44;2.63;;;2.22;;
24743;SDS011;12844;52.110;5.548;2024-03-17T13:57:10;3.30;;;2.03;;
24743;SDS011;12844;52.110;5.548;2024-03-17T13:59:37;2.50;;;1.73;;
24743;SDS011;12844;52.110;5.548;2024-03-17T14:02:03;2.63;;;1.92;;
24743;SDS011;12844;52.110;5.548;2024-03-17T14:04:29;2.70;;;2.17;;
24743;SDS011;12844;52.110;5.548;2024-03-17T14:06:56;3.03;;;2.10;;
24743;SDS011;12844;52.110;5.548;2024-03-17T14:09:21;2.33;;;2.13;;
24743;SDS011;12844;52.110;5.548;2024-03-17T14:11:47;2.15;;;1.90;;
24743;SDS011;12844;52.110;5.548;2024-03-17T14:14:14;2.15;;;1.92;;
24743;SDS011;12844;52.110;5.548;2024-03-17T14:16:40;2.50;;;2.00;;
24743;SDS011;12844;52.110;5.548;2024-03-17T14:19:07;3.25;;;2.42;;
24743;SDS011;12844;52.110;5.548;2024-03-17T14:21:33;2.30;;;2.10;;
24743;SDS011;12844;52.110;5.548;2024-03-17T14:23:59;2.03;;;1.83;;
24743;SDS011;12844;52.110;5.548;2024-03-17T14:26:26;1.92;;;1.80;;
24743;SDS011;12844;52.110;5.548;2024-03-17T14:28:52;2.75;;;2.20;;
24743;SDS011;12844;52.110;5.548;2024-03-17T14:31:19;2.40;;;2.08;;
24743;SDS011;12844;52.110;5.548;2024-03-17T14:33:45;2.05;;;1.67;;
24743;SDS011;12844;52.110;5.548;2024-03-17T14:36:11;2.55;;;2.10;;
24743;SDS011;12844;52.110;5.548;2024-03-17T14:38:36;2.70;;;2.03;;
24743;SDS011;12844;52.110;5.548;2024-03-17T14:41:02;2.47;;;1.67;;
24743;SDS011;12844;52.110;5.548;2024-03-17T14:43:29;2.83;;;2.20;;
24743;SDS011;12844;52.110;5.548;2024-03-17T14:45:55;2.67;;;2.08;;
24743;SDS011;12844;52.110;5.548;2024-03-17T14:48:22;2.17;;;1.90;;
24743;SDS011;12844;52.110;5.548;2024-03-17T14:50:48;2.08;;;1.67;;
24743;SDS011;12844;52.110;5.548;2024-03-17T14:53:14;2.40;;;2.20;;
24743;SDS011;12844;52.110;5.548;2024-03-17T14:55:39;2.15;;;1.95;;
24743;SDS011;12844;52.110;5.548;2024-03-17T14:58:08;2.25;;;1.80;;
24743;SDS011;12844;52.110;5.548;2024-03-17T15:00:35;2.17;;;1.90;;
24743;SDS011;12844;52.110;5.548;2024-03-17T15:03:00;2.20;;;1.77;;
24743;SDS011;12844;52.110;5.548;2024-03-17T15:05:26;2.65;;;2.10;;
24743;SDS011;12844;52.110;5.548;2024-03-17T15:07:52;2.30;;;1.85;;
24743;SDS011;12844;52.110;5.548;2024-03-17T15:10:18;2.42;;;1.98;;
24743;SDS011;12844;52.110;5.548;2024-03-17T15:12:49;1.77;;;1.67;;
24743;SDS011;12844;52.110;5.548;2024-03-17T15:15:15;2.20;;;1.98;;
24743;SDS011;12844;52.110;5.548;2024-03-17T15:17:42;3.00;;;2.17;;
24743;SDS011;12844;52.110;5.548;2024-03-17T15:20:09;2.30;;;2.08;;
24743;SDS011;12844;52.110;5.548;2024-03-17T15:25:12;1.90;;;1.70;;
24743;SDS011;12844;52.110;5.548;2024-03-17T15:27:41;2.00;;;1.70;;
24743;SDS011;12844;52.110;5.548;2024-03-17T15:30:16;2.10;;;1.90;;
24743;SDS011;12844;52.110;5.548;2024-03-17T15:32:51;2.25;;;2.05;;
24743;SDS011;12844;52.110;5.548;2024-03-17T15:35:23;2.65;;;1.80;;
24743;SDS011;12844;52.110;5.548;2024-03-17T15:37:48;1.95;;;1.75;;
24743;SDS011;12844;52.110;5.548;2024-03-17T15:40:14;2.38;;;2.00;;
24743;SDS011;12844;52.110;5.548;2024-03-17T15:42:44;2.10;;;1.70;;
24743;SDS011;12844;52.110;5.548;2024-03-17T15:45:14;2.25;;;1.80;;
24743;SDS011;12844;52.110;5.548;2024-03-17T15:47:40;2.70;;;2.20;;
24743;SDS011;12844;52.110;5.548;2024-03-17T15:50:06;2.58;;;1.70;;
24743;SDS011;12844;52.110;5.548;2024-03-17T15:52:33;2.35;;;1.83;;
24743;SDS011;12844;52.110;5.548;2024-03-17T15:55:00;2.40;;;1.95;;
24743;SDS011;12844;52.110;5.548;2024-03-17T15:57:27;2.33;;;2.10;;
24743;SDS011;12844;52.110;5.548;2024-03-17T15:59:54;2.00;;;1.80;;
24743;SDS011;12844;52.110;5.548;2024-03-17T16:02:20;2.33;;;1.90;;
24743;SDS011;12844;52.110;5.548;2024-03-17T16:04:46;2.33;;;1.80;;
24743;SDS011;12844;52.110;5.548;2024-03-17T16:07:16;2.33;;;2.00;;
24743;SDS011;12844;52.110;5.548;2024-03-17T16:09:43;2.00;;;1.77;;
24743;SDS011;12844;52.110;5.548;2024-03-17T16:12:09;1.95;;;1.75;;
24743;SDS011;12844;52.110;5.548;2024-03-17T16:14:35;2.47;;;2.00;;
24743;SDS011;12844;52.110;5.548;2024-03-17T16:17:04;1.90;;;1.70;;
24743;SDS011;12844;52.110;5.548;2024-03-17T16:19:34;2.30;;;1.75;;
24743;SDS011;12844;52.110;5.548;2024-03-17T16:22:01;1.80;;;1.58;;
24743;SDS011;12844;52.110;5.548;2024-03-17T16:24:28;2.13;;;1.70;;
24743;SDS011;12844;52.110;5.548;2024-03-17T16:26:58;2.15;;;1.90;;
24743;SDS011;12844;52.110;5.548;2024-03-17T16:29:24;1.80;;;1.45;;
24743;SDS011;12844;52.110;5.548;2024-03-17T16:31:49;2.10;;;1.90;;
24743;SDS011;12844;52.110;5.548;2024-03-17T16:34:15;1.70;;;1.60;;
24743;SDS011;12844;52.110;5.548;2024-03-17T16:36:42;2.70;;;1.92;;
24743;SDS011;12844;52.110;5.548;2024-03-17T16:39:11;2.33;;;1.98;;
24743;SDS011;12844;52.110;5.548;2024-03-17T16:41:39;2.30;;;1.83;;
24743;SDS011;12844;52.110;5.548;2024-03-17T16:44:09;1.95;;;1.75;;
24743;SDS011;12844;52.110;5.548;2024-03-17T16:49:17;2.33;;;1.80;;
24743;SDS011;12844;52.110;5.548;2024-03-17T16:51:44;2.00;;;1.80;;
24743;SDS011;12844;52.110;5.548;2024-03-17T16:54:10;2.00;;;1.67;;
24743;SDS011;12844;52.110;5.548;2024-03-17T16:56:37;2.30;;;2.00;;
24743;SDS011;12844;52.110;5.548;2024-03-17T16:59:03;2.00;;;1.80;;
24743;SDS011;12844;52.110;5.548;2024-03-17T17:01:32;2.63;;;1.80;;
24743;SDS011;12844;52.110;5.548;2024-03-17T17:03:57;2.05;;;1.85;;
24743;SDS011;12844;52.110;5.548;2024-03-17T17:06:23;1.65;;;1.55;;
24743;SDS011;12844;52.110;5.548;2024-03-17T17:08:49;2.10;;;1.80;;
24743;SDS011;12844;52.110;5.548;2024-03-17T17:11:15;2.28;;;1.60;;
24743;SDS011;12844;52.110;5.548;2024-03-17T17:13:42;2.38;;;1.67;;
24743;SDS011;12844;52.110;5.548;2024-03-17T17:16:09;2.20;;;1.73;;
24743;SDS011;12844;52.110;5.548;2024-03-17T17:21:29;2.05;;;1.65;;
24743;SDS011;12844;52.110;5.548;2024-03-17T17:23:56;2.22;;;1.70;;
24743;SDS011;12844;52.110;5.548;2024-03-17T17:26:22;2.60;;;1.83;;
24743;SDS011;12844;52.110;5.548;2024-03-17T17:28:52;1.75;;;1.60;;
24743;SDS011;12844;52.110;5.548;2024-03-17T17:31:23;2.75;;;1.80;;
24743;SDS011;12844;52.110;5.548;2024-03-17T17:33:50;2.30;;;1.90;;
24743;SDS011;12844;52.110;5.548;2024-03-17T17:36:16;2.00;;;1.77;;
24743;SDS011;12844;52.110;5.548;2024-03-17T17:38:41;1.98;;;1.77;;
24743;SDS011;12844;52.110;5.548;2024-03-17T17:41:07;2.53;;;1.80;;
24743;SDS011;12844;52.110;5.548;2024-03-17T17:43:42;2.33;;;1.77;;
24743;SDS011;12844;52.110;5.548;2024-03-17T17:46:12;1.75;;;1.50;;
24743;SDS011;12844;52.110;5.548;2024-03-17T17:48:42;2.25;;;1.90;;
24743;SDS011;12844;52.110;5.548;2024-03-17T17:51:16;1.90;;;1.80;;
24743;SDS011;12844;52.110;5.548;2024-03-17T17:53:43;2.10;;;1.70;;
24743;SDS011;12844;52.110;5.548;2024-03-17T17:56:11;2.72;;;1.85;;
24743;SDS011;12844;52.110;5.548;2024-03-17T17:58:39;2.30;;;1.80;;
24743;SDS011;12844;52.110;5.548;2024-03-17T18:01:05;1.90;;;1.63;;
24743;SDS011;12844;52.110;5.548;2024-03-17T18:03:31;2.38;;;1.80;;
24743;SDS011;12844;52.110;5.548;2024-03-17T18:05:58;2.00;;;1.70;;
24743;SDS011;12844;52.110;5.548;2024-03-17T18:08:24;1.67;;;1.55;;
24743;SDS011;12844;52.110;5.548;2024-03-17T18:10:51;2.05;;;1.52;;
24743;SDS011;12844;52.110;5.548;2024-03-17T18:13:19;1.83;;;1.65;;
24743;SDS011;12844;52.110;5.548;2024-03-17T18:15:45;2.17;;;1.67;;
24743;SDS011;12844;52.110;5.548;2024-03-17T18:18:12;2.13;;;1.75;;
24743;SDS011;12844;52.110;5.548;2024-03-17T18:20:50;2.50;;;1.67;;
24743;SDS011;12844;52.110;5.548;2024-03-17T18:23:24;1.98;;;1.55;;